Time;durP1;ratioP1;P1;durP2;ratioP2;P2;SDS_P1;SDS_P2;PMS_P1;PMS_P2;Temp;Humidity;BMP_temperature;BMP_pressure;BME280_temperature;BME280_humidity;BME280_pressure;Samples;Min_cycle;Max_cycle;Signal;HPM_P1;HPM_P2
2022/09/27 00:01:42;;;;;;;6.63;1.88;;;;;;;9.29;100.00;99911.09;7377358;19;20003;-71
2022/09/27 00:04:13;;;;;;;10.55;1.65;;;;;;;9.25;100.00;99914.56;7378283;19;20010;-71
2022/09/27 00:06:43;;;;;;;3.08;1.73;;;;;;;9.21;100.00;99915.41;7376775;19;20026;-71
2022/09/27 00:09:15;;;;;;;8.88;1.65;;;;;;;9.21;100.00;99915.41;7378308;19;20015;-70
2022/09/27 00:11:46;;;;;;;5.93;1.20;;;;;;;9.16;100.00;99914.53;7381944;19;20023;-70
2022/09/27 00:14:17;;;;;;;5.60;2.00;;;;;;;9.10;100.00;99912.75;7378303;19;20014;-69
2022/09/27 00:16:47;;;;;;;12.38;1.90;;;;;;;9.12;100.00;99923.22;7378112;19;20010;-71
2022/09/27 00:19:20;;;;;;;6.15;1.40;;;;;;;9.10;100.00;99919.72;7377213;19;20010;-70
2022/09/27 00:21:51;;;;;;;7.38;1.90;;;;;;;9.05;100.00;99916.22;7378875;19;20010;-70
2022/09/27 00:24:24;;;;;;;5.38;1.65;;;;;;;9.02;100.00;99916.22;7376774;19;20015;-70
2022/09/27 00:26:54;;;;;;;4.60;1.53;;;;;;;8.95;100.00;99912.69;7375615;19;20074;-70
2022/09/27 00:29:23;;;;;;;6.75;1.60;;;;;;;8.95;100.00;99909.19;7379961;19;20284;-71
2022/09/27 00:31:53;;;;;;;12.65;2.17;;;;;;;8.96;100.00;99910.94;7379451;19;20014;-71
2022/09/27 00:34:25;;;;;;;8.60;1.83;;;;;;;8.95;100.00;99909.19;7380014;19;20523;-71
2022/09/27 00:36:55;;;;;;;5.60;1.77;;;;;;;8.96;100.00;99913.56;7379693;19;20230;-71
2022/09/27 00:39:27;;;;;;;6.93;1.70;;;;;;;8.97;100.00;99917.94;7377661;19;20017;-71
2022/09/27 00:41:57;;;;;;;10.82;2.53;;;;;;;8.96;100.00;99921.41;7376564;19;20488;-71
2022/09/27 00:45:01;;;;;;;11.82;1.90;;;;;;;8.99;100.00;99922.28;7376103;19;20018;-71
2022/09/27 00:47:40;;;;;;;7.93;1.73;;;;;;;9.04;100.00;99911.84;7376818;19;20011;-71
2022/09/27 00:50:19;;;;;;;9.90;2.15;;;;;;;9.12;100.00;99925.84;7377226;19;20018;-71
2022/09/27 00:52:58;;;;;;;5.65;1.35;;;;;;;9.15;100.00;99924.13;7373610;19;20014;-74
2022/09/27 00:55:34;;;;;;;10.40;2.20;;;;;;;9.15;100.00;99933.72;7376419;19;20029;-70
2022/09/27 00:58:04;;;;;;;13.65;2.38;;;;;;;9.17;100.00;99924.13;7377539;19;20017;-69
2022/09/27 01:00:34;;;;;;;11.80;2.45;;;;;;;9.16;100.00;99930.22;7376367;19;20018;-70
2022/09/27 01:03:10;;;;;;;11.38;2.58;;;;;;;9.12;100.00;99929.34;7377388;19;20479;-70
2022/09/27 01:05:39;;;;;;;5.68;1.63;;;;;;;9.11;100.00;99937.19;7374208;19;20017;-70
2022/09/27 01:08:09;;;;;;;8.63;2.13;;;;;;;9.10;100.00;99941.53;7374714;19;20015;-70
2022/09/27 01:10:53;;;;;;;8.85;2.00;;;;;;;9.17;100.00;99937.19;7382563;19;20025;-70
2022/09/27 01:13:29;;;;;;;7.90;2.08;;;;;;;9.26;100.00;99946.84;7385900;19;20014;-70
2022/09/27 01:16:09;;;;;;;13.63;2.75;;;;;;;9.35;100.00;99947.75;7385852;19;20018;-70
2022/09/27 01:18:50;;;;;;;12.07;2.15;;;;;;;9.37;100.00;99943.38;7384403;19;20018;-69
2022/09/27 01:21:41;;;;;;;6.65;2.35;;;;;;;9.60;100.00;99943.44;7382275;19;20257;-70
2022/09/27 01:24:50;;;;;;;10.55;1.95;;;;;;;9.60;100.00;99942.56;7383833;19;20015;-70
2022/09/27 01:28:06;;;;;;;21.27;2.50;;;;;;;9.65;100.00;99935.59;7382245;19;20017;-69
2022/09/27 01:30:48;;;;;;;7.80;1.73;;;;;;;9.61;100.00;99934.72;7386344;19;20018;-70
2022/09/27 01:33:33;;;;;;;5.88;1.42;;;;;;;9.60;100.00;99948.69;7383294;19;20010;-69
2022/09/27 01:36:29;;;;;;;5.45;1.15;;;;;;;9.67;100.00;99954.81;7384041;19;20025;-69
2022/09/27 01:39:11;;;;;;;5.93;1.20;;;;;;;9.61;100.00;99949.56;7383869;19;20017;-70
2022/09/27 01:41:47;;;;;;;6.15;1.48;;;;;;;9.55;100.00;99942.56;7381596;19;20015;-71
2022/09/27 01:44:24;;;;;;;9.15;1.50;;;;;;;9.59;100.00;99948.66;7383400;19;20525;-70
2022/09/27 01:47:02;;;;;;;6.20;2.05;;;;;;;9.66;100.00;99945.19;7382165;19;20011;-70
2022/09/27 01:49:37;;;;;;;12.80;2.47;;;;;;;9.67;100.00;99939.09;7384695;19;20555;-70
2022/09/27 01:52:09;;;;;;;7.63;1.70;;;;;;;9.59;100.00;99940.81;7384661;19;20450;-70
2022/09/27 01:54:44;;;;;;;8.13;1.70;;;;;;;9.56;100.00;99936.44;7379413;19;20025;-70
2022/09/27 01:57:21;;;;;;;5.80;1.77;;;;;;;9.60;100.00;99938.19;7383580;19;20017;-70
2022/09/27 01:59:56;;;;;;;10.15;1.55;;;;;;;9.50;100.00;99931.19;7382685;19;20021;-70
2022/09/27 02:02:32;;;;;;;5.50;1.70;;;;;;;9.48;100.00;99931.19;7382278;19;20010;-70
2022/09/27 02:05:05;;;;;;;12.93;2.10;;;;;;;9.43;100.00;99935.53;7380757;19;20014;-69
2022/09/27 02:07:41;;;;;;;7.47;2.00;;;;;;;9.37;100.00;99929.41;7378880;19;20015;-69
2022/09/27 02:10:15;;;;;;;4.03;1.63;;;;;;;9.26;100.00;99926.78;7377566;19;20014;-69
2022/09/27 02:12:56;;;;;;;8.18;1.98;;;;;;;9.21;100.00;99922.41;7382063;19;20035;-70
2022/09/27 02:15:28;;;;;;;8.35;1.35;;;;;;;9.12;100.00;99912.75;7382172;19;20010;-70
2022/09/27 02:18:07;;;;;;;7.10;1.40;;;;;;;9.04;100.00;99914.47;7382083;19;20026;-70
2022/09/27 02:20:41;;;;;;;4.10;1.58;;;;;;;9.03;100.00;99933.66;7378901;19;20855;-70
2022/09/27 02:23:19;;;;;;;9.25;1.98;;;;;;;9.52;100.00;99951.28;7382793;19;20014;-70
2022/09/27 02:25:55;;;;;;;6.97;1.65;;;;;;;9.69;100.00;99948.69;7378831;19;21078;-69
2022/09/27 02:28:29;;;;;;;8.63;1.75;;;;;;;9.74;100.00;99970.53;7383751;19;20026;-69
2022/09/27 02:30:59;;;;;;;5.82;1.13;;;;;;;9.66;100.00;99950.44;7384859;19;20309;-69
2022/09/27 02:33:37;;;;;;;7.28;1.92;;;;;;;9.44;100.00;99955.59;7383674;19;20019;-69
2022/09/27 02:36:08;;;;;;;6.03;1.35;;;;;;;9.31;100.00;99943.38;7383526;19;20014;-70
2022/09/27 02:38:38;;;;;;;5.95;1.60;;;;;;;9.20;100.00;99946.81;7383133;19;20014;-69
2022/09/27 02:41:15;;;;;;;3.47;1.20;;;;;;;9.15;100.00;99933.72;7383629;19;20074;-70
2022/09/27 02:43:49;;;;;;;6.22;2.13;;;;;;;9.10;100.00;99936.31;7383868;19;20010;-69
2022/09/27 02:46:33;;;;;;;9.95;1.88;;;;;;;9.03;100.00;99929.28;7383251;19;20014;-69
2022/09/27 02:49:21;;;;;;;4.07;1.35;;;;;;;8.99;100.00;99930.13;7385684;19;20046;-69
2022/09/27 02:52:02;;;;;;;2.83;1.00;;;;;;;8.94;100.00;99933.59;7382135;19;20010;-70
2022/09/27 02:54:46;;;;;;;4.78;1.27;;;;;;;8.87;100.00;99939.66;7382556;19;20015;-69
2022/09/27 02:57:29;;;;;;;11.23;1.70;;;;;;;8.86;100.00;99938.78;7382661;19;20025;-69
2022/09/27 03:00:08;;;;;;;4.40;1.35;;;;;;;8.83;100.00;99937.03;7379691;19;20055;-69
2022/09/27 03:02:50;;;;;;;5.75;1.90;;;;;;;8.79;100.00;99940.50;7377805;19;20416;-69
2022/09/27 03:05:26;;;;;;;3.60;1.40;;;;;;;8.75;100.00;99937.84;7380066;19;20014;-70
2022/09/27 03:07:55;;;;;;;4.75;1.60;;;;;;;8.69;100.00;99938.69;7380331;19;20014;-69
2022/09/27 03:10:28;;;;;;;4.93;1.38;;;;;;;8.67;100.00;99940.41;7380867;19;20015;-69
2022/09/27 03:12:58;;;;;;;4.72;1.50;;;;;;;8.66;100.00;99933.44;7376382;19;20360;-70
2022/09/27 03:15:30;;;;;;;8.20;2.17;;;;;;;8.61;100.00;99935.13;7380825;19;20019;-70
2022/09/27 03:18:00;;;;;;;3.10;1.73;;;;;;;8.57;100.00;99930.75;7377937;19;20272;-70
2022/09/27 03:20:33;;;;;;;11.23;2.40;;;;;;;8.54;100.00;99925.50;7378807;19;20355;-70
2022/09/27 03:23:05;;;;;;;4.78;1.83;;;;;;;8.50;100.00;99927.22;7382288;19;20019;-69
2022/09/27 03:25:40;;;;;;;7.13;1.63;;;;;;;8.49;100.00;99919.38;7378809;19;20114;-70
2022/09/27 03:28:15;;;;;;;6.10;1.75;;;;;;;8.48;100.00;99922.84;7378508;19;20409;-69
2022/09/27 03:30:47;;;;;;;4.57;1.50;;;;;;;8.50;100.00;99922.00;7379973;19;20013;-70
2022/09/27 03:33:16;;;;;;;10.13;2.00;;;;;;;8.53;100.00;99926.38;7378578;19;20010;-70
2022/09/27 03:35:49;;;;;;;8.40;2.80;;;;;;;8.53;100.00;99937.69;7380840;19;20015;-69
2022/09/27 03:38:19;;;;;;;7.75;3.00;;;;;;;8.57;100.00;99961.25;7379727;19;20014;-69
2022/09/27 03:40:48;;;;;;;9.38;1.67;;;;;;;8.64;100.00;99952.59;7381638;19;20483;-72
2022/09/27 03:43:18;;;;;;;16.55;1.88;;;;;;;8.68;100.00;99947.38;7382099;19;20014;-73
2022/09/27 03:45:47;;;;;;;6.95;1.83;;;;;;;8.69;100.00;99977.00;7378945;19;20022;-71
2022/09/27 03:48:17;;;;;;;8.20;3.15;;;;;;;8.73;100.00;99971.81;7377774;19;20522;-71
2022/09/27 03:50:49;;;;;;;6.93;1.63;;;;;;;8.67;100.00;99937.78;7378895;19;20022;-70
2022/09/27 03:53:19;;;;;;;3.00;1.20;;;;;;;8.62;100.00;99942.13;7376471;19;20561;-70
2022/09/27 03:55:49;;;;;;;10.80;1.85;;;;;;;8.60;100.00;99938.63;7382633;19;20014;-69
2022/09/27 03:58:19;;;;;;;4.70;1.10;;;;;;;8.58;100.00;99949.94;7381016;19;20010;-70
2022/09/27 04:00:49;;;;;;;10.07;2.35;;;;;;;8.56;100.00;99973.44;7377372;19;20020;-70
2022/09/27 04:03:19;;;;;;;5.53;1.67;;;;;;;8.49;100.00;99959.44;7377330;19;20018;-70
2022/09/27 04:05:51;;;;;;;7.82;2.08;;;;;;;8.47;100.00;99929.81;7377276;19;20491;-69
2022/09/27 04:08:21;;;;;;;4.65;1.42;;;;;;;8.48;100.00;99922.84;7379810;19;20015;-70
2022/09/27 04:10:50;;;;;;;3.58;1.10;;;;;;;8.57;100.00;99938.59;7378563;19;20007;-69
2022/09/27 04:13:20;;;;;;;4.57;1.38;;;;;;;8.60;100.00;99937.75;7378838;19;20030;-70
2022/09/27 04:15:50;;;;;;;5.55;1.33;;;;;;;8.67;100.00;99935.19;7378541;19;20021;-70
2022/09/27 04:18:20;;;;;;;5.75;1.38;;;;;;;8.61;100.00;99934.25;7378952;19;20021;-69
2022/09/27 04:20:53;;;;;;;11.00;2.15;;;;;;;8.57;100.00;99933.38;7377064;19;20022;-71
2022/09/27 04:23:23;;;;;;;7.57;1.55;;;;;;;8.56;100.00;99935.97;7378984;19;20019;-71
2022/09/27 04:25:58;;;;;;;5.28;1.55;;;;;;;8.56;100.00;99934.22;7378061;19;20028;-71
2022/09/27 04:28:28;;;;;;;9.43;2.42;;;;;;;8.56;100.00;99941.19;7378063;19;20019;-71
2022/09/27 04:30:58;;;;;;;6.72;1.92;;;;;;;8.57;100.00;99938.59;7375340;19;20147;-71
2022/09/27 04:33:28;;;;;;;4.38;1.23;;;;;;;8.62;100.00;99942.13;7377803;19;20036;-72
2022/09/27 04:38:43;;;;;;;3.72;1.23;;;;;;;8.54;100.00;99928.13;7378255;19;20030;-71
2022/09/27 04:41:13;;;;;;;6.50;1.55;;;;;;;8.54;100.00;99933.34;7377877;19;20014;-71
2022/09/27 04:43:43;;;;;;;4.15;1.50;;;;;;;8.54;100.00;99928.13;7378285;19;20868;-71
2022/09/27 04:46:12;;;;;;;8.20;1.50;;;;;;;8.55;100.00;99939.44;7392841;19;20043;-71
2022/09/27 04:48:42;;;;;;;6.30;1.63;;;;;;;8.55;100.00;99939.44;7391327;19;20010;-71
2022/09/27 04:51:16;;;;;;;4.47;1.38;;;;;;;8.53;100.00;99942.06;7392374;19;20008;-71
2022/09/27 04:53:45;;;;;;;4.43;1.33;;;;;;;8.62;100.00;99934.28;7387610;19;20007;-71
2022/09/27 04:56:16;;;;;;;8.35;1.63;;;;;;;8.61;100.00;99929.03;7392417;19;20022;-71
2022/09/27 04:58:46;;;;;;;9.00;1.80;;;;;;;8.63;100.00;99938.63;7394842;19;20127;-70
2022/09/27 05:01:15;;;;;;;10.48;2.05;;;;;;;8.67;100.00;99943.03;7388105;19;20082;-69
2022/09/27 05:03:45;;;;;;;7.90;1.67;;;;;;;8.62;100.00;99954.31;7391258;19;20021;-69
2022/09/27 05:06:17;;;;;;;7.25;1.58;;;;;;;8.57;100.00;99949.06;7391651;19;20010;-70
2022/09/27 05:08:47;;;;;;;7.93;2.53;;;;;;;8.58;100.00;99939.47;7389882;19;20499;-70
2022/09/27 05:11:17;;;;;;;7.10;1.90;;;;;;;8.55;100.00;99940.31;7391797;19;20046;-70
2022/09/27 05:13:46;;;;;;;5.03;1.50;;;;;;;8.55;100.00;99936.84;7392281;19;20007;-69
2022/09/27 05:16:16;;;;;;;6.38;2.13;;;;;;;8.52;100.00;99945.53;7391453;19;20014;-69
2022/09/27 05:18:46;;;;;;;4.38;1.70;;;;;;;8.53;100.00;99944.66;7389237;19;20010;-69
2022/09/27 05:21:18;;;;;;;6.43;1.52;;;;;;;8.54;100.00;99941.19;7390396;19;20434;-69
2022/09/27 05:23:48;;;;;;;8.27;1.70;;;;;;;8.54;100.00;99941.19;7391051;19;20011;-71
2022/09/27 05:26:18;;;;;;;6.05;1.55;;;;;;;8.53;100.00;99945.53;7391498;19;20618;-69
2022/09/27 05:28:48;;;;;;;4.03;1.70;;;;;;;8.53;100.00;99948.16;7390866;19;20010;-69
2022/09/27 05:31:17;;;;;;;4.43;1.27;;;;;;;8.54;100.00;99954.25;7389893;19;20025;-69
2022/09/27 05:33:52;;;;;;;5.63;2.50;;;;;;;8.51;100.00;99967.31;7386426;19;20011;-71
2022/09/27 05:36:25;;;;;;;5.30;1.80;;;;;;;8.49;100.00;99958.56;7387184;19;20022;-69
2022/09/27 05:38:55;;;;;;;6.82;2.40;;;;;;;8.47;100.00;99955.94;7388235;19;20011;-69
2022/09/27 05:41:25;;;;;;;7.00;1.55;;;;;;;8.50;100.00;99950.75;7389873;19;20355;-69
2022/09/27 05:43:55;;;;;;;5.93;1.70;;;;;;;8.48;100.00;99943.75;7390662;19;20043;-69
2022/09/27 05:46:24;;;;;;;4.18;1.40;;;;;;;8.51;100.00;99938.56;7386270;19;20667;-69
2022/09/27 05:48:54;;;;;;;5.97;1.95;;;;;;;8.50;100.00;99937.69;7386949;19;20021;-71
2022/09/27 05:51:27;;;;;;;9.65;1.90;;;;;;;8.51;100.00;99944.66;7390074;19;20042;-69
2022/09/27 05:53:57;;;;;;;4.67;1.90;;;;;;;8.52;100.00;99956.84;7386201;19;20024;-69
2022/09/27 05:56:27;;;;;;;5.18;1.67;;;;;;;8.52;100.00;99949.00;7382276;19;20353;-68
2022/09/27 05:58:56;;;;;;;4.97;1.60;;;;;;;8.50;100.00;99948.13;7382770;19;20026;-69
2022/09/27 06:01:26;;;;;;;4.30;1.75;;;;;;;8.51;100.00;99949.88;7383141;19;20006;-71
2022/09/27 06:03:56;;;;;;;4.07;1.60;;;;;;;8.51;100.00;99952.50;7380941;19;20006;-71
2022/09/27 06:06:28;;;;;;;5.18;1.30;;;;;;;8.52;100.00;99953.38;7381837;19;20021;-72
2022/09/27 06:08:59;;;;;;;7.57;1.75;;;;;;;8.48;100.00;99944.63;7382541;19;20021;-71
2022/09/27 06:11:49;;;;;;;9.77;1.95;;;;;;;8.50;100.00;99947.25;7380320;19;20082;-71
2022/09/27 06:14:19;;;;;;;6.22;1.65;;;;;;;8.47;100.00;99947.22;7382462;19;20018;-72
2022/09/27 06:16:49;;;;;;;5.10;1.90;;;;;;;8.47;100.00;99947.22;7384016;19;20015;-71
2022/09/27 06:19:19;;;;;;;8.85;1.80;;;;;;;8.44;100.00;99948.09;7381180;19;20021;-71
2022/09/27 06:21:53;;;;;;;3.67;1.50;;;;;;;8.44;100.00;99940.25;7374976;19;20017;-71
2022/09/27 06:24:23;;;;;;;4.75;1.70;;;;;;;8.43;100.00;99941.09;7378157;19;20010;-68
2022/09/27 06:26:53;;;;;;;7.45;1.90;;;;;;;8.44;100.00;99949.81;7383288;19;20025;-71
2022/09/27 06:29:22;;;;;;;8.57;2.08;;;;;;;8.46;100.00;99946.34;7377560;19;20114;-69
2022/09/27 06:31:52;;;;;;;6.18;1.85;;;;;;;8.50;100.00;99957.72;7383879;19;20018;-70
2022/09/27 06:34:21;;;;;;;4.65;2.30;;;;;;;8.53;100.00;99948.16;7383510;19;20018;-70
2022/09/27 06:36:54;;;;;;;8.20;2.42;;;;;;;8.55;100.00;99953.38;7380052;19;20017;-70
2022/09/27 06:39:23;;;;;;;5.28;2.38;;;;;;;8.59;100.00;99952.56;7382429;19;20014;-70
2022/09/27 06:41:56;;;;;;;5.28;2.10;;;;;;;8.64;100.00;99950.84;7382539;19;21317;-68
2022/09/27 06:44:26;;;;;;;10.38;2.20;;;;;;;8.70;100.00;99950.88;7386302;19;20018;-70
2022/09/27 06:46:56;;;;;;;4.43;2.22;;;;;;;8.73;100.00;99950.91;7379051;19;20010;-69
2022/09/27 06:49:25;;;;;;;9.30;2.30;;;;;;;8.73;100.00;99956.13;7378381;19;20280;-69
2022/09/27 06:51:58;;;;;;;8.15;2.30;;;;;;;8.77;100.00;99955.28;7377036;19;20014;-69
2022/09/27 06:54:28;;;;;;;8.23;1.83;;;;;;;8.82;100.00;99963.16;7375369;19;20019;-69
2022/09/27 06:56:58;;;;;;;7.22;2.20;;;;;;;8.82;100.00;99974.50;7377862;19;20324;-69
2022/09/27 07:02:13;;;;;;;6.72;2.40;;;;;;;8.81;100.00;100011.97;7377481;19;20010;-70
2022/09/27 07:04:42;;;;;;;6.70;2.70;;;;;;;8.57;100.00;100019.63;7376676;19;20022;-69
2022/09/27 07:07:15;;;;;;;5.32;1.23;;;;;;;8.46;100.00;100016.91;7376305;19;20018;-68
2022/09/27 07:09:44;;;;;;;4.35;1.30;;;;;;;8.42;100.00;100011.66;7376871;19;20033;-69
2022/09/27 07:12:14;;;;;;;8.13;1.60;;;;;;;8.45;100.00;100011.66;7376398;19;20018;-68
2022/09/27 07:14:44;;;;;;;6.00;1.52;;;;;;;8.43;100.00;100016.00;7377302;19;20006;-68
2022/09/27 07:17:14;;;;;;;4.18;1.50;;;;;;;8.49;100.00;100008.22;7376475;19;20530;-70
2022/09/27 07:19:43;;;;;;;6.63;2.00;;;;;;;8.54;100.00;100011.75;7374974;19;20014;-68
2022/09/27 07:22:16;;;;;;;9.63;1.88;;;;;;;8.57;100.00;100009.16;7378617;19;20021;-69
2022/09/27 07:24:45;;;;;;;4.25;1.50;;;;;;;8.61;100.00;100012.69;7379691;19;20022;-69
2022/09/27 07:27:17;;;;;;;7.35;2.25;;;;;;;8.65;100.00;100010.09;7374222;19;20414;-69
2022/09/27 07:29:46;;;;;;;6.53;1.33;;;;;;;8.66;100.00;100000.53;7377656;19;20010;-68
2022/09/27 07:32:16;;;;;;;7.05;1.50;;;;;;;8.68;100.00;99993.56;7376124;19;20015;-69
2022/09/27 07:34:46;;;;;;;7.88;1.98;;;;;;;8.74;100.00;99999.72;7381668;19;20025;-69
2022/09/27 07:37:18;;;;;;;7.40;1.55;;;;;;;8.79;100.00;99987.56;7382318;19;20014;-69
2022/09/27 07:39:48;;;;;;;6.75;1.77;;;;;;;8.84;100.00;99990.19;7377670;19;20017;-68
2022/09/27 07:42:17;;;;;;;5.85;1.90;;;;;;;8.92;100.00;99988.50;7381302;19;20507;-69
2022/09/27 07:44:47;;;;;;;4.60;1.50;;;;;;;9.02;100.00;99984.22;7381660;19;20025;-69
2022/09/27 07:47:20;;;;;;;11.13;2.00;;;;;;;9.05;100.00;99994.69;7379584;19;20510;-69
2022/09/27 07:49:50;;;;;;;7.00;1.90;;;;;;;9.06;100.00;99996.44;7382539;19;20003;-69
2022/09/27 07:52:23;;;;;;;3.65;1.17;;;;;;;9.09;100.00;100006.91;7379730;19;20330;-69
2022/09/27 07:54:53;;;;;;;6.17;1.43;;;;;;;9.07;100.00;100011.25;7379971;19;20010;-69
2022/09/27 07:57:24;;;;;;;7.68;1.52;;;;;;;9.09;100.00;100010.41;7376987;19;20267;-68
2022/09/27 07:59:54;;;;;;;4.10;1.25;;;;;;;9.13;100.00;100003.44;7375714;19;20017;-69
2022/09/27 08:02:24;;;;;;;4.43;1.63;;;;;;;9.21;100.00;100008.72;7378955;19;20128;-69
2022/09/27 08:04:53;;;;;;;7.15;2.65;;;;;;;9.18;100.00;100020.94;7376829;19;20010;-69
2022/09/27 08:07:26;;;;;;;3.65;1.60;;;;;;;9.16;100.00;100020.03;7378413;19;20010;-69
2022/09/27 08:09:56;;;;;;;3.97;1.25;;;;;;;9.22;100.00;100023.56;7377289;19;20013;-70
2022/09/27 08:12:26;;;;;;;4.50;1.65;;;;;;;9.29;100.00;100025.34;7381261;19;20014;-69
2022/09/27 08:15:00;;;;;;;4.85;1.40;;;;;;;9.27;100.00;100024.47;7379406;19;20463;-69
2022/09/27 08:17:30;;;;;;;6.53;1.75;;;;;;;9.31;100.00;100024.50;7378711;19;20023;-69
2022/09/27 08:20:03;;;;;;;5.13;1.25;;;;;;;9.33;100.00;100029.72;7376961;19;20010;-69
2022/09/27 08:22:35;;;;;;;4.03;1.25;;;;;;;9.38;100.00;100033.22;7372763;19;20010;-69
2022/09/27 08:25:06;;;;;;;3.42;1.10;;;;;;;9.41;100.00;100041.94;7380896;19;20010;-70
2022/09/27 08:27:35;;;;;;;2.72;1.05;;;;;;;9.37;100.00;100040.19;7378488;19;20353;-70
2022/09/27 08:30:06;;;;;;;6.03;1.30;;;;;;;9.38;100.00;100041.94;7379035;19;20042;-71
2022/09/27 08:32:37;;;;;;;4.10;1.15;;;;;;;9.26;100.00;100046.25;7379905;19;20014;-68
2022/09/27 08:35:08;;;;;;;6.75;1.52;;;;;;;9.20;100.00;100054.94;7379539;19;20639;-68
2022/09/27 08:37:41;;;;;;;7.20;1.83;;;;;;;9.23;100.00;100056.72;7380448;19;20018;-68
2022/09/27 08:40:16;;;;;;;5.68;1.38;;;;;;;9.18;100.00;100062.78;7378669;19;20482;-68
2022/09/27 08:42:56;;;;;;;4.35;1.63;;;;;;;9.28;100.00;100061.09;7380317;19;20015;-69
2022/09/27 08:45:33;;;;;;;3.80;1.25;;;;;;;9.37;100.00;100061.13;7379082;19;20077;-69
2022/09/27 08:48:05;;;;;;;8.10;2.30;;;;;;;9.44;100.00;100064.66;7378798;19;20475;-69
2022/09/27 08:50:39;;;;;;;7.38;2.28;;;;;;;9.42;100.00;100067.25;7380663;19;20010;-69
2022/09/27 08:53:21;;;;;;;5.45;1.50;;;;;;;9.46;100.00;100060.31;7376926;19;20035;-69
2022/09/27 08:55:53;;;;;;;6.07;1.60;;;;;;;9.58;100.00;100059.47;7375431;19;20014;-68
2022/09/27 08:58:27;;;;;;;3.33;1.27;;;;;;;9.67;100.00;100064.75;7373373;19;20070;-68
2022/09/27 09:01:01;;;;;;;5.22;1.30;;;;;;;9.78;100.00;100050.84;7373760;19;20421;-68
2022/09/27 09:03:33;;;;;;;4.30;1.35;;;;;;;9.86;100.00;100053.50;7372547;19;20022;-68
2022/09/27 09:06:13;;;;;;;9.98;1.90;;;;;;;9.86;100.00;100055.25;7376348;19;20019;-68
2022/09/27 09:08:54;;;;;;;8.65;1.50;;;;;;;9.90;100.00;100047.41;7375314;19;20006;-68
2022/09/27 09:14:41;;;;;;;7.18;1.83;;;;;;;9.97;100.00;100036.06;7375487;19;20020;-68
2022/09/27 09:17:22;;;;;;;3.47;1.48;;;;;;;10.01;100.00;100029.97;7373809;19;20015;-69
2022/09/27 09:20:12;;;;;;;4.40;1.33;;;;;;;10.10;100.00;100039.59;7379514;19;20514;-69
2022/09/27 09:23:05;;;;;;;7.28;1.75;;;;;;;10.06;100.00;100043.97;7370290;19;20019;-68
2022/09/27 09:25:47;;;;;;;7.53;1.60;;;;;;;10.10;100.00;100039.59;7375246;19;20553;-68
2022/09/27 09:28:32;;;;;;;7.00;2.10;;;;;;;10.14;100.00;100042.22;7371625;19;20046;-68
2022/09/27 09:31:12;;;;;;;6.97;1.63;;;;;;;10.19;100.00;100051.84;7375373;19;20082;-69
2022/09/27 09:33:47;;;;;;;7.13;1.80;;;;;;;10.26;100.00;100053.66;7381455;19;20015;-69
2022/09/27 09:36:26;;;;;;;6.30;1.67;;;;;;;10.32;100.00;100043.19;7380153;19;20015;-69
2022/09/27 09:39:00;;;;;;;5.78;1.55;;;;;;;10.29;100.00;100056.28;7383127;19;20048;-68
2022/09/27 09:41:35;;;;;;;;;;;;;;;10.34;100.00;100059.78;7378773;19;20097;-69
2022/09/27 09:44:07;;;;;;;;;;;;;;;10.35;100.00;100066.78;7384744;19;19914;-69
2022/09/27 09:46:42;;;;;;;4.25;1.70;;;;;;;10.04;100.00;100056.19;7385341;19;20285;-69
2022/09/27 09:49:24;;;;;;;7.03;1.95;;;;;;;10.07;100.00;100071.91;7382163;19;20736;-68
2022/09/27 09:51:58;;;;;;;7.50;1.95;;;;;;;10.04;100.00;100074.53;7384220;19;20014;-68
2022/09/27 09:54:33;;;;;;;9.43;1.67;;;;;;;9.81;100.00;100086.66;7381829;19;20013;-68
2022/09/27 09:57:09;;;;;;;5.22;1.50;;;;;;;9.69;100.00;100081.34;7383450;19;20011;-68
2022/09/27 09:59:44;;;;;;;2.65;1.25;;;;;;;9.59;100.00;100082.19;7382686;19;20014;-68
2022/09/27 10:02:27;;;;;;;2.45;1.60;;;;;;;9.59;100.00;100082.19;7384316;19;20018;-68
2022/09/27 10:04:57;;;;;;;4.18;1.60;;;;;;;9.58;100.00;100089.16;7380402;19;20018;-68
2022/09/27 10:07:33;;;;;;;6.13;1.50;;;;;;;9.60;100.00;100094.41;7381275;19;20443;-68
2022/09/27 10:10:07;;;;;;;4.95;2.00;;;;;;;9.54;100.00;100089.13;7377379;19;20026;-69
2022/09/27 10:12:39;;;;;;;;;;;;;;;9.44;100.00;100093.44;7381186;19;20021;-68
2022/09/27 10:15:15;;;;;;;7.43;1.70;;;;;;;9.41;100.00;100077.72;7378698;19;19930;-69
2022/09/27 10:17:49;;;;;;;5.75;1.65;;;;;;;9.32;100.00;100080.31;7378871;19;20014;-69
2022/09/27 10:20:28;;;;;;;2.53;1.50;;;;;;;9.34;100.00;100081.19;7378768;19;20011;-70
2022/09/27 10:23:05;;;;;;;7.20;1.70;;;;;;;9.25;100.00;100078.53;7377535;19;20014;-69
2022/09/27 10:25:51;;;;;;;5.45;1.88;;;;;;;9.24;100.00;100085.50;7379373;19;20014;-68
2022/09/27 10:28:38;;;;;;;2.35;1.40;;;;;;;9.16;100.00;100077.59;7374815;19;20358;-68
2022/09/27 10:31:11;;;;;;;4.35;1.70;;;;;;;9.05;100.00;100081.00;7372591;19;20010;-67
2022/09/27 10:33:53;;;;;;;4.55;1.58;;;;;;;8.99;100.00;100071.38;7380423;19;20403;-68
2022/09/27 10:36:28;;;;;;;5.60;2.38;;;;;;;8.99;100.00;100071.38;7383504;19;20025;-68
2022/09/27 10:39:00;;;;;;;5.68;1.70;;;;;;;8.90;100.00;100062.56;7378854;19;20437;-67
2022/09/27 10:41:35;;;;;;;6.22;1.52;;;;;;;8.87;100.00;100065.16;7376715;19;20393;-68
2022/09/27 10:44:27;;;;;;;5.75;1.60;;;;;;;8.84;100.00;100068.63;7376460;19;20054;-70
2022/09/27 10:47:00;;;;;;;4.80;1.60;;;;;;;8.88;100.00;100062.56;7380687;19;20378;-68
2022/09/27 10:49:34;;;;;;;1.85;1.70;;;;;;;8.91;100.00;100053.88;7381163;19;20078;-69
2022/09/27 10:52:08;;;;;;;6.53;1.77;;;;;;;8.99;100.00;100041.72;7384739;19;20021;-69
2022/09/27 10:54:41;;;;;;;3.15;1.40;;;;;;;8.94;100.00;100048.66;7381194;19;20078;-69
2022/09/27 10:57:21;;;;;;;4.30;1.88;;;;;;;8.97;100.00;100054.78;7380670;19;20010;-68
2022/09/27 10:59:56;;;;;;;5.28;1.73;;;;;;;9.07;100.00;100045.25;7380878;19;20015;-70
2022/09/27 11:02:30;;;;;;;4.30;1.50;;;;;;;9.07;100.00;100048.75;7380750;19;20021;-69
2022/09/27 11:05:13;;;;;;;3.25;1.50;;;;;;;9.13;100.00;100051.41;7379549;19;20018;-71
2022/09/27 11:07:51;;;;;;;2.33;1.48;;;;;;;9.11;100.00;100057.50;7380627;19;20007;-71
2022/09/27 11:10:30;;;;;;;2.63;1.60;;;;;;;9.01;100.00;100058.31;7380305;19;20086;-72
2022/09/27 11:13:13;;;;;;;3.70;1.63;;;;;;;9.06;100.00;100047.00;7364872;19;20002;-70
2022/09/27 11:16:19;;;;;;;6.25;1.50;;;;;;;9.10;100.00;100048.78;7372389;19;20025;-68
2022/09/27 11:19:03;;;;;;;4.15;1.48;;;;;;;9.20;100.00;100036.63;7380041;19;20056;-69
2022/09/27 11:21:46;;;;;;;10.65;2.92;;;;;;;9.38;100.00;100039.31;7382820;19;20399;-70
2022/09/27 11:24:39;;;;;;;4.95;1.80;;;;;;;9.48;100.00;100035.88;7376858;19;20011;-71
2022/09/27 11:27:23;;;;;;;3.90;1.83;;;;;;;9.51;100.00;100033.28;7379280;19;20011;-69
2022/09/27 11:30:06;;;;;;;4.22;1.80;;;;;;;9.55;100.00;100038.53;7382595;19;20010;-71
2022/09/27 11:32:51;;;;;;;4.27;2.00;;;;;;;9.67;100.00;100033.34;7382492;19;20007;-72
2022/09/27 11:35:46;;;;;;;5.30;1.85;;;;;;;9.70;100.00;100038.59;7382749;19;20086;-71
2022/09/27 11:38:23;;;;;;;5.80;2.30;;;;;;;9.66;100.00;100031.59;7384573;19;20014;-71
2022/09/27 11:41:32;;;;;;;6.63;1.67;;;;;;;9.88;100.00;100038.66;7384057;19;20010;-70
2022/09/27 11:44:20;;;;;;;7.43;1.90;;;;;;;9.84;100.00;100035.16;7382953;19;20006;-70
2022/09/27 11:46:59;;;;;;;2.97;1.60;;;;;;;9.81;100.00;100035.16;7383081;19;20009;-70
2022/09/27 11:50:06;;;;;;;2.45;1.33;;;;;;;9.81;100.00;100029.91;7382183;19;20032;-70
2022/09/27 11:52:46;;;;;;;4.00;1.70;;;;;;;9.80;100.00;100033.41;7380259;19;20007;-69
2022/09/27 11:55:31;;;;;;;4.80;1.65;;;;;;;10.01;100.00;100024.75;7378769;19;20011;-71
2022/09/27 11:58:07;;;;;;;5.43;1.90;;;;;;;9.98;100.00;100016.88;7380341;19;20487;-70
2022/09/27 12:00:52;;;;;;;7.05;2.10;;;;;;;10.21;100.00;100016.06;7381584;19;20038;-71
2022/09/27 12:03:49;;;;;;;4.05;2.45;;;;;;;10.34;100.00;100023.09;7379283;19;20014;-70
2022/09/27 12:06:26;;;;;;;7.88;2.10;;;;;;;10.43;100.00;100013.44;7369655;19;20547;-71
2022/09/27 12:09:08;;;;;;;4.95;2.00;;;;;;;10.65;100.00;100014.34;7376647;19;20007;-70
2022/09/27 12:11:43;;;;;;;4.35;1.85;;;;;;;10.80;100.00;100003.84;7378421;19;20485;-70
2022/09/27 12:14:21;;;;;;;5.50;2.08;;;;;;;10.88;100.00;100003.81;7378226;19;20007;-71